East Brewton, Alabama
Current Conditions -  °F | °C
As of 9:53 AM on Saturday 20 Dec 2014 (Local Time) from KGZH Reporting Station
Overcast Overcast  
Wind Chill: 47°   Ceiling: 500
Heat Index: 49°   Visibility: 8mi
Dew Point: 46°   Wind: 6mph
Humidity: 90%   Direction: 50°NE
Pressure: 30.19"   Gusts: NA
Location:  31.1052°N, 87.0725°W
Report Text: KGZH 201553Z AUTO 05005KT 8SM OVC005 09/08 A3019 RMK AO2 SLP222 T00940078
Loading
Personal Weather Stations






























Interactive Weather Map New forecast layout! Learn more

10-Day Weather Forecast

Advertisements
Track Severe Weather on mobile